sensor_id;sensor_type;location;lat;lon;timestamp;pressure;altitude;pressure_sealevel;temperature;humidity
66381;BME280;53177;52.648;1.214;2023-02-12T00:01:34;103346.59;;;6.84;84.35
66381;BME280;53177;52.648;1.214;2023-02-12T00:04:00;103347.00;;;6.97;83.40
66381;BME280;53177;52.648;1.214;2023-02-12T00:06:25;103349.06;;;7.05;83.33
66381;BME280;53177;52.648;1.214;2023-02-12T00:08:53;103355.00;;;7.00;83.50
66381;BME280;53177;52.648;1.214;2023-02-12T00:11:22;103350.19;;;6.87;83.97
66381;BME280;53177;52.648;1.214;2023-02-12T00:13:49;103349.81;;;6.76;84.38
66381;BME280;53177;52.648;1.214;2023-02-12T00:16:17;103345.75;;;6.85;84.38
66381;BME280;53177;52.648;1.214;2023-02-12T00:18:44;103344.31;;;6.95;84.00
66381;BME280;53177;52.648;1.214;2023-02-12T00:21:10;103341.81;;;6.98;83.64
66381;BME280;53177;52.648;1.214;2023-02-12T00:23:37;103331.66;;;6.83;84.23
66381;BME280;53177;52.648;1.214;2023-02-12T00:26:06;103343.56;;;6.72;84.73
66381;BME280;53177;52.648;1.214;2023-02-12T00:28:32;103345.91;;;6.65;85.15
66381;BME280;53177;52.648;1.214;2023-02-12T00:30:57;103341.41;;;6.62;85.22
66381;BME280;53177;52.648;1.214;2023-02-12T00:33:24;103339.13;;;6.71;85.44
66381;BME280;53177;52.648;1.214;2023-02-12T00:35:58;103342.31;;;6.88;84.66
66381;BME280;53177;52.648;1.214;2023-02-12T00:38:23;103341.38;;;6.86;84.61
66381;BME280;53177;52.648;1.214;2023-02-12T00:40:49;103337.22;;;6.93;84.47
66381;BME280;53177;52.648;1.214;2023-02-12T00:43:14;103337.88;;;6.85;84.41
66381;BME280;53177;52.648;1.214;2023-02-12T00:45:40;103331.44;;;6.77;84.49
66381;BME280;53177;52.648;1.214;2023-02-12T00:48:05;103336.97;;;6.85;84.32
66381;BME280;53177;52.648;1.214;2023-02-12T00:50:31;103336.31;;;6.92;84.27
66381;BME280;53177;52.648;1.214;2023-02-12T00:52:56;103333.66;;;6.91;84.16
66381;BME280;53177;52.648;1.214;2023-02-12T00:55:22;103334.97;;;7.03;83.75
66381;BME280;53177;52.648;1.214;2023-02-12T00:57:47;103336.44;;;6.95;83.59
66381;BME280;53177;52.648;1.214;2023-02-12T01:00:14;103331.41;;;6.76;84.70
66381;BME280;53177;52.648;1.214;2023-02-12T01:02:41;103332.06;;;6.70;84.45
66381;BME280;53177;52.648;1.214;2023-02-12T01:05:07;103335.91;;;6.80;84.35
66381;BME280;53177;52.648;1.214;2023-02-12T01:07:32;103328.34;;;6.89;84.01
66381;BME280;53177;52.648;1.214;2023-02-12T01:09:57;103332.88;;;6.93;84.21
66381;BME280;53177;52.648;1.214;2023-02-12T01:12:23;103335.16;;;6.84;84.24
66381;BME280;53177;52.648;1.214;2023-02-12T01:14:48;103337.03;;;6.87;84.42
66381;BME280;53177;52.648;1.214;2023-02-12T01:17:14;103333.41;;;6.83;84.93
66381;BME280;53177;52.648;1.214;2023-02-12T01:19:39;103332.44;;;6.81;85.34
66381;BME280;53177;52.648;1.214;2023-02-12T01:22:04;103330.78;;;6.83;83.93
66381;BME280;53177;52.648;1.214;2023-02-12T01:24:30;103330.50;;;6.75;84.87
66381;BME280;53177;52.648;1.214;2023-02-12T01:26:55;103332.66;;;6.87;84.58
66381;BME280;53177;52.648;1.214;2023-02-12T01:29:20;103324.88;;;6.90;84.32
66381;BME280;53177;52.648;1.214;2023-02-12T01:31:46;103326.59;;;6.90;84.97
66381;BME280;53177;52.648;1.214;2023-02-12T01:34:11;103330.50;;;7.01;84.06
66381;BME280;53177;52.648;1.214;2023-02-12T01:36:37;103337.44;;;6.99;83.87
66381;BME280;53177;52.648;1.214;2023-02-12T01:39:04;103339.75;;;6.90;84.41
66381;BME280;53177;52.648;1.214;2023-02-12T01:41:39;103339.78;;;6.91;83.88
66381;BME280;53177;52.648;1.214;2023-02-12T01:46:40;103344.19;;;6.91;84.41
66381;BME280;53177;52.648;1.214;2023-02-12T01:49:10;103340.81;;;6.95;83.60
66381;BME280;53177;52.648;1.214;2023-02-12T01:51:37;103342.69;;;6.99;83.40
66381;BME280;53177;52.648;1.214;2023-02-12T01:54:06;103346.38;;;7.04;83.47
66381;BME280;53177;52.648;1.214;2023-02-12T01:56:33;103351.38;;;6.96;83.30
66381;BME280;53177;52.648;1.214;2023-02-12T01:58:59;103339.03;;;6.94;84.01
66381;BME280;53177;52.648;1.214;2023-02-12T02:01:27;103339.44;;;6.80;84.01
66381;BME280;53177;52.648;1.214;2023-02-12T02:03:57;103336.16;;;6.88;83.81
66381;BME280;53177;52.648;1.214;2023-02-12T02:06:34;103343.22;;;6.89;84.26
66381;BME280;53177;52.648;1.214;2023-02-12T02:09:03;103338.06;;;6.92;83.68
66381;BME280;53177;52.648;1.214;2023-02-12T02:11:28;103339.97;;;6.96;83.53
66381;BME280;53177;52.648;1.214;2023-02-12T02:14:12;103339.28;;;7.01;83.64
66381;BME280;53177;52.648;1.214;2023-02-12T02:30:58;103330.69;;;6.81;84.15
66381;BME280;53177;52.648;1.214;2023-02-12T02:43:50;103330.88;;;6.86;83.89
66381;BME280;53177;52.648;1.214;2023-02-12T02:46:33;103322.25;;;6.90;83.64
66381;BME280;53177;52.648;1.214;2023-02-12T02:49:10;103337.06;;;6.88;83.77
66381;BME280;53177;52.648;1.214;2023-02-12T02:51:42;103334.53;;;6.91;83.74
66381;BME280;53177;52.648;1.214;2023-02-12T02:54:37;103326.03;;;6.98;83.08
66381;BME280;53177;52.648;1.214;2023-02-12T02:57:08;103325.97;;;6.97;83.37
66381;BME280;53177;52.648;1.214;2023-02-12T02:59:41;103328.59;;;6.97;82.95
66381;BME280;53177;52.648;1.214;2023-02-12T03:02:15;103316.00;;;6.87;83.57
66381;BME280;53177;52.648;1.214;2023-02-12T03:04:49;103322.28;;;6.92;83.81
66381;BME280;53177;52.648;1.214;2023-02-12T03:07:20;103322.28;;;6.92;83.51
66381;BME280;53177;52.648;1.214;2023-02-12T03:10:04;103323.91;;;6.88;84.05
66381;BME280;53177;52.648;1.214;2023-02-12T03:12:56;103325.66;;;6.88;83.28
66381;BME280;53177;52.648;1.214;2023-02-12T03:15:29;103325.81;;;6.67;84.33
66381;BME280;53177;52.648;1.214;2023-02-12T03:17:57;103324.97;;;6.68;84.33
66381;BME280;53177;52.648;1.214;2023-02-12T03:20:30;103325.16;;;6.72;84.10
66381;BME280;53177;52.648;1.214;2023-02-12T03:23:04;103323.06;;;6.64;84.50
66381;BME280;53177;52.648;1.214;2023-02-12T03:25:39;103314.47;;;6.68;84.26
66381;BME280;53177;52.648;1.214;2023-02-12T03:28:13;103314.72;;;6.75;84.57
66381;BME280;53177;52.648;1.214;2023-02-12T03:36:06;103314.34;;;6.65;85.13
66381;BME280;53177;52.648;1.214;2023-02-12T03:38:44;103317.91;;;6.67;84.98
66381;BME280;53177;52.648;1.214;2023-02-12T03:41:17;103318.13;;;6.73;84.22
66381;BME280;53177;52.648;1.214;2023-02-12T03:43:50;103320.00;;;6.75;83.99
66381;BME280;53177;52.648;1.214;2023-02-12T03:53:53;103324.44;;;6.78;84.69
66381;BME280;53177;52.648;1.214;2023-02-12T03:56:28;103327.00;;;6.76;84.13
66381;BME280;53177;52.648;1.214;2023-02-12T03:58:56;103323.25;;;6.68;84.78
66381;BME280;53177;52.648;1.214;2023-02-12T04:01:21;103323.97;;;6.64;84.99
66381;BME280;53177;52.648;1.214;2023-02-12T04:03:47;103325.81;;;6.67;84.93
66381;BME280;53177;52.648;1.214;2023-02-12T04:06:23;103325.34;;;6.78;83.90
66381;BME280;53177;52.648;1.214;2023-02-12T04:08:50;103330.78;;;6.83;83.77
66381;BME280;53177;52.648;1.214;2023-02-12T04:22:53;103330.91;;;6.62;85.20
66381;BME280;53177;52.648;1.214;2023-02-12T04:33:25;103348.75;;;6.71;85.13
66381;BME280;53177;52.648;1.214;2023-02-12T04:36:02;103346.22;;;6.74;84.42
66381;BME280;53177;52.648;1.214;2023-02-12T04:38:37;103351.16;;;6.65;85.03
66381;BME280;53177;52.648;1.214;2023-02-12T04:41:05;103350.91;;;6.57;85.39
66381;BME280;53177;52.648;1.214;2023-02-12T04:43:35;103356.28;;;6.62;85.05
66381;BME280;53177;52.648;1.214;2023-02-12T04:46:06;103361.50;;;6.60;84.89
66381;BME280;53177;52.648;1.214;2023-02-12T04:48:32;103362.25;;;6.56;85.07
66381;BME280;53177;52.648;1.214;2023-02-12T04:50:59;103362.84;;;6.49;85.89
66381;BME280;53177;52.648;1.214;2023-02-12T04:53:25;103369.44;;;6.62;85.04
66381;BME280;53177;52.648;1.214;2023-02-12T04:55:50;103364.91;;;6.58;85.35
66381;BME280;53177;52.648;1.214;2023-02-12T04:58:16;103357.28;;;6.65;85.22
66381;BME280;53177;52.648;1.214;2023-02-12T05:00:42;103360.88;;;6.67;85.08
66381;BME280;53177;52.648;1.214;2023-02-12T05:03:07;103362.16;;;6.55;85.45
66381;BME280;53177;52.648;1.214;2023-02-12T05:05:33;103357.88;;;6.57;85.21
66381;BME280;53177;52.648;1.214;2023-02-12T05:07:58;103353.38;;;6.54;85.16
66381;BME280;53177;52.648;1.214;2023-02-12T05:10:25;103353.53;;;6.57;85.31
66381;BME280;53177;52.648;1.214;2023-02-12T05:12:52;103351.72;;;6.56;85.32
66381;BME280;53177;52.648;1.214;2023-02-12T05:15:17;103346.66;;;6.62;85.09
66381;BME280;53177;52.648;1.214;2023-02-12T05:17:43;103350.31;;;6.66;85.01
66381;BME280;53177;52.648;1.214;2023-02-12T05:20:10;103349.28;;;6.61;85.51
66381;BME280;53177;52.648;1.214;2023-02-12T05:22:36;103342.47;;;6.67;85.35
66381;BME280;53177;52.648;1.214;2023-02-12T05:25:02;103341.13;;;6.55;86.06
66381;BME280;53177;52.648;1.214;2023-02-12T05:27:28;103341.38;;;6.61;85.74
66381;BME280;53177;52.648;1.214;2023-02-12T05:29:53;103346.84;;;6.67;85.68
66381;BME280;53177;52.648;1.214;2023-02-12T05:32:18;103342.47;;;6.67;85.65
66381;BME280;53177;52.648;1.214;2023-02-12T05:34:44;103346.66;;;6.62;85.37
66381;BME280;53177;52.648;1.214;2023-02-12T05:37:09;103346.75;;;6.64;85.53
66381;BME280;53177;52.648;1.214;2023-02-12T05:39:34;103351.72;;;6.56;85.60
66381;BME280;53177;52.648;1.214;2023-02-12T05:42:00;103350.28;;;6.64;86.00
66381;BME280;53177;52.648;1.214;2023-02-12T05:44:25;103344.75;;;6.57;85.16
66381;BME280;53177;52.648;1.214;2023-02-12T05:46:50;103348.28;;;6.59;84.93
66381;BME280;53177;52.648;1.214;2023-02-12T05:49:16;103344.41;;;6.73;84.94
66381;BME280;53177;52.648;1.214;2023-02-12T05:51:41;103342.41;;;6.66;84.76
66381;BME280;53177;52.648;1.214;2023-02-12T05:54:07;103337.94;;;6.63;85.35
66381;BME280;53177;52.648;1.214;2023-02-12T05:56:38;103343.28;;;6.65;85.32
66381;BME280;53177;52.648;1.214;2023-02-12T05:59:07;103345.03;;;6.66;84.75
66381;BME280;53177;52.648;1.214;2023-02-12T06:01:38;103343.72;;;6.53;85.58
66381;BME280;53177;52.648;1.214;2023-02-12T06:04:06;103339.13;;;6.48;85.60
66381;BME280;53177;52.648;1.214;2023-02-12T06:06:33;103342.75;;;6.51;85.68
66381;BME280;53177;52.648;1.214;2023-02-12T06:08:59;103339.50;;;6.58;85.59
66381;BME280;53177;52.648;1.214;2023-02-12T06:11:25;103347.63;;;6.64;85.54
66381;BME280;53177;52.648;1.214;2023-02-12T06:13:50;103336.06;;;6.59;85.17
66381;BME280;53177;52.648;1.214;2023-02-12T06:18:42;103342.41;;;6.66;85.47
66381;BME280;53177;52.648;1.214;2023-02-12T06:21:07;103347.75;;;6.67;85.22
66381;BME280;53177;52.648;1.214;2023-02-12T06:23:33;103349.03;;;6.55;85.73
66381;BME280;53177;52.648;1.214;2023-02-12T06:25:58;103347.13;;;6.51;86.00
66381;BME280;53177;52.648;1.214;2023-02-12T06:28:24;103343.72;;;6.53;85.83
66381;BME280;53177;52.648;1.214;2023-02-12T06:30:49;103354.19;;;6.52;86.02
66381;BME280;53177;52.648;1.214;2023-02-12T06:33:15;103349.72;;;6.49;85.29
66381;BME280;53177;52.648;1.214;2023-02-12T06:35:40;103350.00;;;6.57;85.87
66381;BME280;53177;52.648;1.214;2023-02-12T06:38:06;103354.34;;;6.56;85.53
66381;BME280;53177;52.648;1.214;2023-02-12T06:40:32;103341.38;;;6.61;85.51
66381;BME280;53177;52.648;1.214;2023-02-12T06:42:57;103347.56;;;6.63;85.78
66381;BME280;53177;52.648;1.214;2023-02-12T06:45:23;103349.41;;;6.65;85.03
66381;BME280;53177;52.648;1.214;2023-02-12T06:47:48;103348.56;;;6.66;85.44
66381;BME280;53177;52.648;1.214;2023-02-12T06:50:15;103353.84;;;6.66;85.36
66381;BME280;53177;52.648;1.214;2023-02-12T06:52:41;103354.38;;;6.58;85.16
66381;BME280;53177;52.648;1.214;2023-02-12T06:55:06;103352.66;;;6.58;85.53
66381;BME280;53177;52.648;1.214;2023-02-12T06:57:32;103353.72;;;6.63;84.92
66381;BME280;53177;52.648;1.214;2023-02-12T06:59:57;103359.78;;;6.61;84.85
66381;BME280;53177;52.648;1.214;2023-02-12T07:02:22;103357.72;;;6.52;85.74
66381;BME280;53177;52.648;1.214;2023-02-12T07:04:48;103365.09;;;6.39;85.80
66381;BME280;53177;52.648;1.214;2023-02-12T07:07:13;103366.09;;;6.42;86.12
66381;BME280;53177;52.648;1.214;2023-02-12T07:09:39;103357.59;;;6.49;85.89
66381;BME280;53177;52.648;1.214;2023-02-12T07:12:04;103355.97;;;6.53;85.51
66381;BME280;53177;52.648;1.214;2023-02-12T07:14:30;103365.81;;;6.58;85.21
66381;BME280;53177;52.648;1.214;2023-02-12T07:16:56;103366.78;;;6.60;85.44
66381;BME280;53177;52.648;1.214;2023-02-12T07:19:22;103373.03;;;6.64;85.48
66381;BME280;53177;52.648;1.214;2023-02-12T07:21:48;103373.38;;;6.49;85.97
66381;BME280;53177;52.648;1.214;2023-02-12T07:24:13;103375.59;;;6.39;86.79
66381;BME280;53177;52.648;1.214;2023-02-12T07:26:40;103386.75;;;6.31;86.59
66381;BME280;53177;52.648;1.214;2023-02-12T07:29:06;103380.06;;;6.41;85.91
66381;BME280;53177;52.648;1.214;2023-02-12T07:31:31;103377.22;;;6.35;86.61
66381;BME280;53177;52.648;1.214;2023-02-12T07:33:58;103373.91;;;6.41;85.92
66381;BME280;53177;52.648;1.214;2023-02-12T07:36:26;103377.63;;;6.46;86.33
66381;BME280;53177;52.648;1.214;2023-02-12T07:38:53;103382.81;;;6.44;86.37
66381;BME280;53177;52.648;1.214;2023-02-12T07:41:29;103388.16;;;6.47;86.42
66381;BME280;53177;52.648;1.214;2023-02-12T07:43:56;103388.16;;;6.47;86.02
66381;BME280;53177;52.648;1.214;2023-02-12T07:46:28;103384.81;;;6.51;86.27
66381;BME280;53177;52.648;1.214;2023-02-12T07:48:56;103390.03;;;6.50;86.42
66381;BME280;53177;52.648;1.214;2023-02-12T07:51:22;103384.81;;;6.51;86.24
66381;BME280;53177;52.648;1.214;2023-02-12T07:53:48;103392.94;;;6.57;85.53
66381;BME280;53177;52.648;1.214;2023-02-12T07:56:22;103386.91;;;6.60;85.32
66381;BME280;53177;52.648;1.214;2023-02-12T07:58:49;103393.09;;;6.62;85.31
66381;BME280;53177;52.648;1.214;2023-02-12T08:01:22;103383.59;;;6.65;85.24
66381;BME280;53177;52.648;1.214;2023-02-12T08:03:49;103381.91;;;6.67;84.52
66381;BME280;53177;52.648;1.214;2023-02-12T08:06:26;103386.28;;;6.67;84.45
66381;BME280;53177;52.648;1.214;2023-02-12T08:08:54;103391.53;;;6.67;84.62
66381;BME280;53177;52.648;1.214;2023-02-12T08:11:20;103387.06;;;6.64;84.59
66381;BME280;53177;52.648;1.214;2023-02-12T08:13:47;103385.16;;;6.60;84.76
66381;BME280;53177;52.648;1.214;2023-02-12T08:16:17;103395.72;;;6.62;84.44
66381;BME280;53177;52.648;1.214;2023-02-12T08:18:43;103398.50;;;6.65;83.80
66381;BME280;53177;52.648;1.214;2023-02-12T08:21:11;103397.63;;;6.66;84.43
66381;BME280;53177;52.648;1.214;2023-02-12T08:23:37;103400.25;;;6.66;84.22
66381;BME280;53177;52.648;1.214;2023-02-12T08:26:15;103400.25;;;6.66;84.41
66381;BME280;53177;52.648;1.214;2023-02-12T08:28:43;103407.13;;;6.62;85.53
66381;BME280;53177;52.648;1.214;2023-02-12T08:31:15;103402.97;;;6.67;84.46
66381;BME280;53177;52.648;1.214;2023-02-12T08:33:43;103399.59;;;6.71;84.54
66381;BME280;53177;52.648;1.214;2023-02-12T08:36:11;103396.97;;;6.71;84.42
66381;BME280;53177;52.648;1.214;2023-02-12T08:38:38;103400.72;;;6.78;84.41
66381;BME280;53177;52.648;1.214;2023-02-12T08:41:06;103404.03;;;6.72;84.61
66381;BME280;53177;52.648;1.214;2023-02-12T08:43:32;103407.66;;;6.76;84.41
66381;BME280;53177;52.648;1.214;2023-02-12T08:46:07;103402.53;;;6.80;84.01
66381;BME280;53177;52.648;1.214;2023-02-12T08:48:32;103407.59;;;6.74;84.84
66381;BME280;53177;52.648;1.214;2023-02-12T08:53:42;103410.50;;;6.82;84.51
66381;BME280;53177;52.648;1.214;2023-02-12T08:56:09;103415.59;;;6.77;84.90
66381;BME280;53177;52.648;1.214;2023-02-12T08:58:35;103409.66;;;6.83;84.95
66381;BME280;53177;52.648;1.214;2023-02-12T09:01:01;103413.34;;;6.88;84.78
66381;BME280;53177;52.648;1.214;2023-02-12T09:03:27;103416.03;;;6.90;84.35
66381;BME280;53177;52.648;1.214;2023-02-12T09:05:52;103422.31;;;6.93;84.29
66381;BME280;53177;52.648;1.214;2023-02-12T09:08:17;103413.34;;;6.88;84.04
66381;BME280;53177;52.648;1.214;2023-02-12T09:10:44;103408.97;;;6.89;84.04
66381;BME280;53177;52.648;1.214;2023-02-12T09:13:11;103411.59;;;6.89;83.80
66381;BME280;53177;52.648;1.214;2023-02-12T09:15:38;103409.94;;;6.91;83.24
66381;BME280;53177;52.648;1.214;2023-02-12T09:18:04;103411.78;;;6.93;83.16
66381;BME280;53177;52.648;1.214;2023-02-12T09:20:31;103414.50;;;6.96;83.15
66381;BME280;53177;52.648;1.214;2023-02-12T09:22:58;103420.75;;;6.98;83.42
66381;BME280;53177;52.648;1.214;2023-02-12T09:25:24;103410.25;;;7.00;82.86
66381;BME280;53177;52.648;1.214;2023-02-12T09:27:49;103409.44;;;7.02;83.53
66381;BME280;53177;52.648;1.214;2023-02-12T09:30:16;103405.22;;;7.06;83.23
66381;BME280;53177;52.648;1.214;2023-02-12T09:32:42;103406.81;;;7.02;83.70
66381;BME280;53177;52.648;1.214;2023-02-12T09:35:08;103404.25;;;7.04;83.47
66381;BME280;53177;52.648;1.214;2023-02-12T09:37:35;103408.63;;;7.03;83.71
66381;BME280;53177;52.648;1.214;2023-02-12T09:40:00;103413.94;;;7.05;83.35
66381;BME280;53177;52.648;1.214;2023-02-12T09:42:55;103409.63;;;7.07;83.33
66381;BME280;53177;52.648;1.214;2023-02-12T09:45:26;103407.88;;;7.07;83.38
66381;BME280;53177;52.648;1.214;2023-02-12T09:50:45;103406.34;;;7.14;82.94
66381;BME280;53177;52.648;1.214;2023-02-12T09:53:15;103408.09;;;7.13;82.95
66381;BME280;53177;52.648;1.214;2023-02-12T09:55:42;103403.78;;;7.15;83.39
66381;BME280;53177;52.648;1.214;2023-02-12T09:58:19;103403.81;;;7.17;82.84
66381;BME280;53177;52.648;1.214;2023-02-12T10:00:46;103406.44;;;7.17;82.15
66381;BME280;53177;52.648;1.214;2023-02-12T10:03:14;103402.25;;;7.22;81.64
66381;BME280;53177;52.648;1.214;2023-02-12T10:05:45;103405.97;;;7.28;81.76
66381;BME280;53177;52.648;1.214;2023-02-12T10:16:14;103420.28;;;7.35;81.70
66381;BME280;53177;52.648;1.214;2023-02-12T10:21:58;103416.84;;;7.38;81.33
66381;BME280;53177;52.648;1.214;2023-02-12T10:24:50;103425.63;;;7.38;82.02
66381;BME280;53177;52.648;1.214;2023-02-12T10:27:38;103420.56;;;7.44;81.92
66381;BME280;53177;52.648;1.214;2023-02-12T10:33:03;103419.00;;;7.49;80.88
66381;BME280;53177;52.648;1.214;2023-02-12T10:35:31;103425.16;;;7.50;81.44
66381;BME280;53177;52.648;1.214;2023-02-12T10:38:03;103413.75;;;7.51;80.87
66381;BME280;53177;52.648;1.214;2023-02-12T10:40:33;103420.00;;;7.54;80.55
66381;BME280;53177;52.648;1.214;2023-02-12T10:43:00;103423.53;;;7.55;80.35
66381;BME280;53177;52.648;1.214;2023-02-12T10:45:31;103418.25;;;7.53;80.05
66381;BME280;53177;52.648;1.214;2023-02-12T10:48:29;103413.00;;;7.55;80.08
66381;BME280;53177;52.648;1.214;2023-02-12T10:53:49;103423.78;;;7.61;79.80
66381;BME280;53177;52.648;1.214;2023-02-12T10:56:17;103422.88;;;7.60;79.92
66381;BME280;53177;52.648;1.214;2023-02-12T10:58:57;103422.06;;;7.63;79.54
66381;BME280;53177;52.648;1.214;2023-02-12T11:01:37;103416.81;;;7.63;79.85
66381;BME280;53177;52.648;1.214;2023-02-12T11:04:27;103427.28;;;7.61;79.63
66381;BME280;53177;52.648;1.214;2023-02-12T11:09:40;103422.88;;;7.60;80.27
66381;BME280;53177;52.648;1.214;2023-02-12T11:14:48;103415.22;;;7.68;79.68
66381;BME280;53177;52.648;1.214;2023-02-12T11:17:23;103416.97;;;7.69;79.69
66381;BME280;53177;52.648;1.214;2023-02-12T11:20:02;103417.13;;;7.73;79.63
66381;BME280;53177;52.648;1.214;2023-02-12T11:22:28;103414.34;;;7.69;79.18
66381;BME280;53177;52.648;1.214;2023-02-12T11:25:00;103414.31;;;7.67;79.03
66381;BME280;53177;52.648;1.214;2023-02-12T11:27:31;103424.06;;;7.70;79.34
66381;BME280;53177;52.648;1.214;2023-02-12T11:30:15;103424.13;;;7.71;79.53
66381;BME280;53177;52.648;1.214;2023-02-12T11:32:41;103414.50;;;7.73;79.28
66381;BME280;53177;52.648;1.214;2023-02-12T11:37:59;103416.41;;;7.77;79.15
66381;BME280;53177;52.648;1.214;2023-02-12T11:40:30;103407.44;;;7.72;78.97
66381;BME280;53177;52.648;1.214;2023-02-12T11:43:03;103402.97;;;7.70;79.48
66381;BME280;53177;52.648;1.214;2023-02-12T11:45:36;103409.97;;;7.69;79.24
66381;BME280;53177;52.648;1.214;2023-02-12T11:48:38;103408.31;;;7.71;79.77
66381;BME280;53177;52.648;1.214;2023-02-12T11:51:07;103411.03;;;7.74;80.45
66381;BME280;53177;52.648;1.214;2023-02-12T11:53:40;103409.34;;;7.76;79.84
66381;BME280;53177;52.648;1.214;2023-02-12T11:56:09;103408.31;;;7.71;80.74
66381;BME280;53177;52.648;1.214;2023-02-12T11:58:35;103407.44;;;7.72;80.38
66381;BME280;53177;52.648;1.214;2023-02-12T12:01:26;103411.69;;;7.67;80.01
66381;BME280;53177;52.648;1.214;2023-02-12T12:04:04;103417.69;;;7.63;80.49
66381;BME280;53177;52.648;1.214;2023-02-12T12:06:45;103424.69;;;7.63;80.55
66381;BME280;53177;52.648;1.214;2023-02-12T12:09:17;103416.63;;;7.57;81.41
66381;BME280;53177;52.648;1.214;2023-02-12T12:12:02;103416.00;;;7.65;81.69
66381;BME280;53177;52.648;1.214;2023-02-12T12:14:34;103421.31;;;7.67;80.47
66381;BME280;53177;52.648;1.214;2023-02-12T12:18:00;103423.03;;;7.65;81.33
66381;BME280;53177;52.648;1.214;2023-02-12T12:20:55;103417.59;;;7.60;81.34
66381;BME280;53177;52.648;1.214;2023-02-12T12:23:30;103415.97;;;7.64;81.57
66381;BME280;53177;52.648;1.214;2023-02-12T12:26:07;103409.06;;;7.67;81.74
66381;BME280;53177;52.648;1.214;2023-02-12T12:28:43;103408.16;;;7.67;81.63
66381;BME280;53177;52.648;1.214;2023-02-12T12:31:19;103408.06;;;7.64;81.64
66381;BME280;53177;52.648;1.214;2023-02-12T12:33:56;103408.22;;;7.68;81.74
66381;BME280;53177;52.648;1.214;2023-02-12T12:39:45;103402.09;;;7.69;81.26
66381;BME280;53177;52.648;1.214;2023-02-12T12:48:32;103393.53;;;7.76;80.40
66381;BME280;53177;52.648;1.214;2023-02-12T12:59:02;103386.03;;;7.62;80.83
66381;BME280;53177;52.648;1.214;2023-02-12T13:04:30;103384.31;;;7.62;81.10
66381;BME280;53177;52.648;1.214;2023-02-12T13:07:10;103376.31;;;7.59;81.54
66381;BME280;53177;52.648;1.214;2023-02-12T13:20:59;103364.78;;;7.56;79.68
66381;BME280;53177;52.648;1.214;2023-02-12T13:23:51;103366.91;;;7.67;80.72
66381;BME280;53177;52.648;1.214;2023-02-12T13:26:36;103361.59;;;7.66;79.61
66381;BME280;53177;52.648;1.214;2023-02-12T13:29:14;103349.13;;;7.60;79.93
66381;BME280;53177;52.648;1.214;2023-02-12T13:31:50;103352.44;;;7.55;79.90
66381;BME280;53177;52.648;1.214;2023-02-12T13:34:17;103355.16;;;7.56;79.60
66381;BME280;53177;52.648;1.214;2023-02-12T13:36:45;103354.31;;;7.57;79.99
66381;BME280;53177;52.648;1.214;2023-02-12T13:41:38;103344.78;;;7.61;80.26
66381;BME280;53177;52.648;1.214;2023-02-12T13:44:18;103348.41;;;7.66;79.50
66381;BME280;53177;52.648;1.214;2023-02-12T13:52:18;103341.47;;;7.68;80.05
66381;BME280;53177;52.648;1.214;2023-02-12T13:57:38;103342.38;;;7.68;79.38
66381;BME280;53177;52.648;1.214;2023-02-12T14:00:10;103337.97;;;7.69;78.95
66381;BME280;53177;52.648;1.214;2023-02-12T14:02:51;103332.91;;;7.75;78.49
66381;BME280;53177;52.648;1.214;2023-02-12T14:05:23;103332.91;;;7.75;78.71
66381;BME280;53177;52.648;1.214;2023-02-12T14:08:03;103325.47;;;7.62;78.54
66381;BME280;53177;52.648;1.214;2023-02-12T14:10:38;103323.72;;;7.62;78.76
66381;BME280;53177;52.648;1.214;2023-02-12T14:15:41;103315.91;;;7.65;79.20
66381;BME280;53177;52.648;1.214;2023-02-12T14:18:30;103324.72;;;7.66;78.68
66381;BME280;53177;52.648;1.214;2023-02-12T14:23:43;103324.53;;;7.60;79.00
66381;BME280;53177;52.648;1.214;2023-02-12T14:26:18;103322.09;;;7.66;80.02
66381;BME280;53177;52.648;1.214;2023-02-12T14:29:00;103322.84;;;7.62;78.40
66381;BME280;53177;52.648;1.214;2023-02-12T14:31:37;103309.00;;;7.69;79.96
66381;BME280;53177;52.648;1.214;2023-02-12T14:41:45;103303.66;;;7.66;79.14
66381;BME280;53177;52.648;1.214;2023-02-12T14:46:59;103297.72;;;7.73;79.48
66381;BME280;53177;52.648;1.214;2023-02-12T14:49:37;103297.88;;;7.77;79.25
66381;BME280;53177;52.648;1.214;2023-02-12T14:57:25;103289.94;;;7.76;79.66
66381;BME280;53177;52.648;1.214;2023-02-12T14:59:54;103290.47;;;7.66;79.36
66381;BME280;53177;52.648;1.214;2023-02-12T15:02:33;103286.19;;;7.69;79.25
66381;BME280;53177;52.648;1.214;2023-02-12T15:05:17;103289.81;;;7.73;79.14
66381;BME280;53177;52.648;1.214;2023-02-12T15:08:14;103287.06;;;7.68;79.00
66381;BME280;53177;52.648;1.214;2023-02-12T15:10:49;103277.56;;;7.73;79.56
66381;BME280;53177;52.648;1.214;2023-02-12T15:13:29;103284.78;;;7.80;79.64
66381;BME280;53177;52.648;1.214;2023-02-12T15:16:07;103290.13;;;7.83;79.87
66381;BME280;53177;52.648;1.214;2023-02-12T15:23:41;103276.56;;;7.70;79.41
66381;BME280;53177;52.648;1.214;2023-02-12T15:26:21;103280.16;;;7.72;79.24
66381;BME280;53177;52.648;1.214;2023-02-12T15:28:50;103278.53;;;7.77;80.10
66381;BME280;53177;52.648;1.214;2023-02-12T15:31:20;103281.13;;;7.75;78.88
66381;BME280;53177;52.648;1.214;2023-02-12T15:33:50;103281.00;;;7.71;78.85
66381;BME280;53177;52.648;1.214;2023-02-12T15:36:20;103282.50;;;7.63;78.78
66381;BME280;53177;52.648;1.214;2023-02-12T15:38:53;103268.50;;;7.64;79.04
66381;BME280;53177;52.648;1.214;2023-02-12T15:41:24;103273.00;;;7.68;79.25
66381;BME280;53177;52.648;1.214;2023-02-12T15:43:50;103268.66;;;7.70;79.51
66381;BME280;53177;52.648;1.214;2023-02-12T15:46:16;103265.19;;;7.71;79.51
66381;BME280;53177;52.648;1.214;2023-02-12T15:48:42;103267.81;;;7.71;79.62
66381;BME280;53177;52.648;1.214;2023-02-12T15:53:38;103271.22;;;7.67;79.87
66381;BME280;53177;52.648;1.214;2023-02-12T15:56:11;103267.31;;;7.54;79.90
66381;BME280;53177;52.648;1.214;2023-02-12T15:58:48;103266.69;;;7.63;79.90
66381;BME280;53177;52.648;1.214;2023-02-12T16:01:16;103262.19;;;7.59;78.24